createdAt,value
2022-11-15T00:00:55.657Z,10.10
2022-11-15T00:02:28.691Z,10.10
2022-11-15T00:04:00.506Z,10.10
2022-11-15T00:05:36.877Z,10.10
2022-11-15T00:07:17.971Z,10.10
2022-11-15T00:09:01.084Z,10.20
2022-11-15T00:10:32.864Z,10.20
2022-11-15T00:12:06.029Z,10.20
2022-11-15T00:13:37.826Z,10.20
2022-11-15T00:15:10.797Z,10.20
2022-11-15T00:16:43.506Z,10.20
2022-11-15T00:18:17.098Z,10.20
2022-11-15T00:19:50.292Z,10.20
2022-11-15T00:21:24.154Z,10.20
2022-11-15T00:22:57.259Z,10.20
2022-11-15T00:24:29.978Z,10.20
2022-11-15T00:26:01.953Z,10.20
2022-11-15T00:27:34.677Z,10.30
2022-11-15T00:29:07.647Z,10.30
2022-11-15T00:30:39.418Z,10.40
2022-11-15T00:32:12.357Z,10.40
2022-11-15T00:33:45.129Z,10.40
2022-11-15T00:35:18.022Z,10.40
2022-11-15T00:36:50.745Z,10.40
2022-11-15T00:38:24.813Z,10.40
2022-11-15T00:39:57.550Z,10.30
2022-11-15T00:41:30.286Z,10.30
2022-11-15T00:43:03.006Z,10.30
2022-11-15T00:44:35.721Z,10.30
2022-11-15T00:46:09.074Z,10.20
2022-11-15T00:47:41.793Z,10.30
2022-11-15T00:49:14.519Z,10.30
2022-11-15T00:50:46.323Z,10.30
2022-11-15T00:52:19.079Z,10.30
2022-11-15T00:53:53.147Z,10.30
2022-11-15T00:55:24.901Z,10.30
2022-11-15T00:56:57.622Z,10.30
2022-11-15T00:58:29.396Z,10.30
2022-11-15T01:00:02.102Z,10.30
2022-11-15T01:01:34.844Z,10.30
2022-11-15T01:03:07.549Z,10.30
2022-11-15T01:04:40.341Z,10.30
2022-11-15T01:06:13.413Z,10.40
2022-11-15T01:07:46.192Z,10.40
2022-11-15T01:09:20.266Z,10.30
2022-11-15T01:10:53.092Z,10.40
2022-11-15T01:12:25.803Z,10.40
2022-11-15T01:13:58.563Z,10.40
2022-11-15T01:15:31.296Z,10.40
2022-11-15T01:17:03.073Z,10.40
2022-11-15T01:18:36.053Z,10.40
2022-11-15T01:20:09.904Z,10.40
2022-11-15T01:21:42.688Z,10.40
2022-11-15T01:23:14.439Z,10.40
2022-11-15T01:24:48.497Z,10.40
2022-11-15T01:26:21.243Z,10.40
2022-11-15T01:27:53.986Z,10.40
2022-11-15T01:29:26.716Z,10.40
2022-11-15T01:31:00.526Z,10.50
2022-11-15T01:32:33.783Z,10.50
2022-11-15T01:34:06.602Z,10.50
2022-11-15T01:35:41.061Z,10.50
2022-11-15T01:37:13.803Z,10.50
2022-11-15T01:38:46.695Z,10.60
2022-11-15T01:40:20.774Z,10.60
2022-11-15T01:41:53.503Z,10.70
2022-11-15T01:43:28.634Z,10.70
2022-11-15T01:45:01.507Z,10.70
2022-11-15T01:46:36.683Z,10.70
2022-11-15T01:48:12.531Z,10.70
2022-11-15T01:49:57.103Z,10.80
2022-11-15T01:51:32.861Z,10.80
2022-11-15T01:53:05.720Z,10.90
2022-11-15T01:54:38.487Z,10.90
2022-11-15T01:56:15.633Z,10.80
2022-11-15T01:57:50.214Z,10.90
2022-11-15T01:59:23.977Z,10.90
2022-11-15T02:00:56.846Z,10.90
2022-11-15T02:02:28.720Z,11.00
2022-11-15T02:04:05.851Z,11.00
2022-11-15T02:05:39.235Z,11.00
2022-11-15T02:07:14.454Z,11.00
2022-11-15T02:08:47.265Z,11.00
2022-11-15T02:10:22.157Z,11.00
2022-11-15T02:11:57.595Z,11.00
2022-11-15T02:13:30.669Z,11.00
2022-11-15T02:15:05.497Z,11.10
2022-11-15T02:16:49.215Z,11.00
2022-11-15T02:18:27.361Z,11.00
2022-11-15T02:20:35.718Z,11.00
2022-11-15T02:22:20.488Z,10.90
2022-11-15T02:24:37.503Z,10.80
2022-11-15T02:26:51.452Z,10.70
2022-11-15T02:28:47.538Z,10.60
2022-11-15T02:30:24.193Z,10.50
2022-11-15T02:32:04.316Z,10.50
2022-11-15T02:33:44.434Z,10.50
2022-11-15T02:35:27.118Z,10.40
2022-11-15T02:37:08.938Z,10.50
2022-11-15T02:38:49.013Z,10.40
2022-11-15T02:40:30.701Z,10.40
2022-11-15T02:42:29.709Z,10.40
2022-11-15T02:44:05.558Z,10.40
2022-11-15T02:45:41.052Z,10.40
2022-11-15T02:47:18.526Z,10.40
2022-11-15T02:48:50.831Z,10.40
2022-11-15T02:50:27.971Z,10.40
2022-11-15T02:52:00.720Z,10.30
2022-11-15T02:53:32.906Z,10.30
2022-11-15T02:55:06.536Z,10.30
2022-11-15T02:56:39.335Z,10.30
2022-11-15T02:58:39.734Z,10.30
2022-11-15T03:00:15.846Z,10.30
2022-11-15T03:01:59.890Z,10.30
2022-11-15T03:03:52.059Z,10.20
2022-11-15T03:05:32.381Z,10.20
2022-11-15T03:07:09.641Z,10.20
2022-11-15T03:08:50.583Z,10.20
2022-11-15T03:10:27.471Z,10.20
2022-11-15T03:12:05.870Z,10.10
2022-11-15T03:13:45.049Z,10.10
2022-11-15T03:15:23.194Z,10.10
2022-11-15T03:17:04.906Z,10.20
2022-11-15T03:18:40.690Z,10.10
2022-11-15T03:20:16.219Z,10.10
2022-11-15T03:21:50.058Z,10.10
2022-11-15T03:23:23.083Z,10.20
2022-11-15T03:24:59.753Z,10.20
2022-11-15T03:26:34.957Z,10.20
2022-11-15T03:28:11.291Z,10.20
2022-11-15T03:29:48.232Z,10.20
2022-11-15T03:31:44.447Z,10.20
2022-11-15T03:33:23.231Z,10.20
2022-11-15T03:34:59.088Z,10.20
2022-11-15T03:36:35.567Z,10.10
2022-11-15T03:38:13.868Z,10.10
2022-11-15T03:39:45.717Z,10.20
2022-11-15T03:41:25.373Z,10.20
2022-11-15T03:43:06.321Z,10.20
2022-11-15T03:44:46.071Z,10.20
2022-11-15T03:46:27.078Z,10.20
2022-11-15T03:48:03.562Z,10.20
2022-11-15T03:49:40.458Z,10.20
2022-11-15T03:51:13.698Z,10.20
2022-11-15T03:52:47.856Z,10.20
2022-11-15T03:54:19.638Z,10.20
2022-11-15T03:55:52.404Z,10.20
2022-11-15T03:57:25.179Z,10.20
2022-11-15T03:58:57.913Z,10.30
2022-11-15T04:00:31.371Z,10.20
2022-11-15T04:02:04.091Z,10.30
2022-11-15T04:03:36.822Z,10.30
2022-11-15T04:05:11.094Z,10.30
2022-11-15T04:06:43.830Z,10.30
2022-11-15T04:08:16.597Z,10.30
2022-11-15T04:10:04.360Z,10.40
2022-11-15T04:11:37.125Z,10.30
2022-11-15T04:13:09.874Z,10.30
2022-11-15T04:15:01.667Z,10.40
2022-11-15T04:16:35.176Z,10.40
2022-11-15T04:18:10.165Z,10.40
2022-11-15T04:20:00.333Z,10.40
2022-11-15T04:21:51.938Z,10.40
2022-11-15T04:23:42.908Z,10.40
2022-11-15T04:25:20.612Z,10.50
2022-11-15T04:26:55.714Z,10.40
2022-11-15T04:28:28.811Z,10.40
2022-11-15T04:30:00.754Z,10.40
2022-11-15T04:31:33.592Z,10.50
2022-11-15T04:33:06.375Z,10.50
2022-11-15T04:34:39.612Z,10.40
2022-11-15T04:36:29.685Z,10.40
2022-11-15T04:38:06.112Z,10.40
2022-11-15T04:39:38.077Z,10.50
2022-11-15T04:41:10.804Z,10.50
2022-11-15T04:42:43.855Z,10.50
2022-11-15T04:44:15.598Z,10.40
2022-11-15T04:45:48.331Z,10.50
2022-11-15T04:47:21.046Z,10.50
2022-11-15T04:48:58.526Z,10.40
2022-11-15T04:50:32.073Z,10.50
2022-11-15T04:52:05.118Z,10.50
2022-11-15T04:53:39.177Z,10.50
2022-11-15T04:55:12.426Z,10.50
2022-11-15T04:56:44.273Z,10.50
2022-11-15T04:58:17.051Z,10.50
2022-11-15T04:59:49.812Z,10.50
2022-11-15T05:01:22.696Z,10.50
2022-11-15T05:03:15.139Z,10.50
2022-11-15T05:04:47.900Z,10.50
2022-11-15T05:06:20.654Z,10.50
2022-11-15T05:07:53.397Z,10.50
2022-11-15T05:09:27.465Z,10.50
2022-11-15T05:10:59.245Z,10.50
2022-11-15T05:12:31.957Z,10.50
2022-11-15T05:14:04.706Z,10.50
2022-11-15T05:15:37.454Z,10.50
2022-11-15T05:17:10.201Z,10.50
2022-11-15T05:18:43.356Z,10.50
2022-11-15T05:20:16.237Z,10.50
2022-11-15T05:21:48.397Z,10.50
2022-11-15T05:23:21.157Z,10.50
2022-11-15T05:24:54.265Z,10.50
2022-11-15T05:26:27.245Z,10.60
2022-11-15T05:27:59.988Z,10.50
2022-11-15T05:29:32.707Z,10.50
2022-11-15T05:31:05.532Z,10.50
2022-11-15T05:32:38.626Z,10.50
2022-11-15T05:34:10.901Z,10.50
2022-11-15T05:35:47.990Z,10.50
2022-11-15T05:37:20.730Z,10.50
2022-11-15T05:38:53.664Z,10.60
2022-11-15T05:40:28.155Z,10.50
2022-11-15T05:42:06.913Z,10.50
2022-11-15T05:43:41.587Z,10.50
2022-11-15T05:45:14.370Z,10.50
2022-11-15T05:46:46.759Z,10.50
2022-11-15T05:48:19.850Z,10.50
2022-11-15T05:49:54.150Z,10.50
2022-11-15T05:51:29.226Z,10.50
2022-11-15T05:53:05.322Z,10.50
2022-11-15T05:54:39.133Z,10.50
2022-11-15T05:56:14.373Z,10.50
2022-11-15T05:57:47.213Z,10.50
2022-11-15T05:59:20.846Z,10.50
2022-11-15T06:00:52.748Z,10.60
2022-11-15T06:02:25.555Z,10.60
2022-11-15T06:03:58.298Z,10.50
2022-11-15T06:05:31.161Z,10.50
2022-11-15T06:07:04.205Z,10.50
2022-11-15T06:08:36.928Z,10.50
2022-11-15T06:10:10.866Z,10.50
2022-11-15T06:11:44.968Z,10.50
2022-11-15T06:13:17.764Z,10.50
2022-11-15T06:14:50.527Z,10.50
2022-11-15T06:16:23.424Z,10.40
2022-11-15T06:17:59.193Z,10.40
2022-11-15T06:19:33.750Z,10.40
2022-11-15T06:21:07.251Z,10.50
2022-11-15T06:22:39.960Z,10.40
2022-11-15T06:24:12.699Z,10.50
2022-11-15T06:25:45.548Z,10.40
2022-11-15T06:27:19.616Z,10.40
2022-11-15T06:28:52.331Z,10.40
2022-11-15T06:30:26.071Z,10.40
2022-11-15T06:31:58.804Z,10.40
2022-11-15T06:33:30.848Z,10.40
2022-11-15T06:35:04.044Z,10.40
2022-11-15T06:36:37.789Z,10.40
2022-11-15T06:38:12.693Z,10.40
2022-11-15T06:39:45.424Z,10.40
2022-11-15T06:41:18.788Z,10.40
2022-11-15T06:42:52.886Z,10.50
2022-11-15T06:44:25.632Z,10.40
2022-11-15T06:45:59.820Z,10.40
2022-11-15T06:47:32.605Z,10.40
2022-11-15T06:49:09.586Z,10.40
2022-11-15T06:50:43.003Z,10.40
2022-11-15T06:52:15.746Z,10.40
2022-11-15T06:53:48.514Z,10.40
2022-11-15T06:55:21.264Z,10.40
2022-11-15T06:56:53.999Z,10.40
2022-11-15T06:58:28.202Z,10.40
2022-11-15T07:00:00.951Z,10.40
2022-11-15T07:01:33.790Z,10.50
2022-11-15T07:03:06.528Z,10.60
2022-11-15T07:04:39.271Z,10.70
2022-11-15T07:06:12.618Z,10.70
2022-11-15T07:07:45.351Z,10.70
2022-11-15T07:09:18.117Z,10.70
2022-11-15T07:10:51.542Z,10.80
2022-11-15T07:12:24.299Z,10.90
2022-11-15T07:13:58.370Z,10.90
2022-11-15T07:15:31.097Z,11.10
2022-11-15T07:17:05.807Z,11.10
2022-11-15T07:18:39.703Z,11.20
2022-11-15T07:20:14.174Z,11.30
2022-11-15T07:21:47.587Z,11.30
2022-11-15T07:23:20.385Z,11.40
2022-11-15T07:24:53.110Z,11.50
2022-11-15T07:26:25.941Z,11.50
2022-11-15T07:28:00.081Z,11.50
2022-11-15T07:29:34.319Z,11.50
2022-11-15T07:31:08.985Z,11.40
2022-11-15T07:32:41.718Z,11.50
2022-11-15T07:34:14.495Z,11.50
2022-11-15T07:35:50.079Z,11.50
2022-11-15T07:37:22.823Z,11.50
2022-11-15T07:38:55.589Z,11.60
2022-11-15T07:40:29.950Z,11.70
2022-11-15T07:42:19.263Z,11.80
2022-11-15T07:43:53.433Z,11.90
2022-11-15T07:45:28.175Z,12.00
2022-11-15T07:47:00.936Z,12.10
2022-11-15T07:48:43.434Z,12.20
2022-11-15T07:50:18.097Z,12.30
2022-11-15T07:51:50.838Z,12.40
2022-11-15T07:53:23.611Z,12.50
2022-11-15T07:54:56.314Z,12.50
2022-11-15T07:56:29.052Z,12.60
2022-11-15T07:58:05.642Z,12.70
2022-11-15T07:59:38.388Z,12.80
2022-11-15T08:01:13.323Z,12.80
2022-11-15T08:02:46.418Z,12.90
2022-11-15T08:04:19.232Z,13.00
2022-11-15T08:05:53.237Z,13.00
2022-11-15T08:07:26.098Z,13.00
2022-11-15T08:08:58.865Z,12.90
2022-11-15T08:10:34.233Z,12.90
2022-11-15T08:12:10.555Z,13.00
2022-11-15T08:13:43.359Z,13.00
2022-11-15T08:15:16.254Z,13.10
2022-11-15T08:16:50.339Z,13.10
2022-11-15T08:18:23.080Z,13.20
2022-11-15T08:19:55.856Z,13.20
2022-11-15T08:21:28.610Z,13.30
2022-11-15T08:23:03.339Z,13.30
2022-11-15T08:24:36.093Z,13.30
2022-11-15T08:26:08.846Z,13.30
2022-11-15T08:27:41.611Z,13.30
2022-11-15T08:29:14.418Z,13.20
2022-11-15T08:30:47.207Z,13.10
2022-11-15T08:32:21.305Z,13.10
2022-11-15T08:33:54.767Z,13.00
2022-11-15T08:35:29.260Z,13.00
2022-11-15T08:37:02.231Z,12.90
2022-11-15T08:38:35.161Z,12.90
2022-11-15T08:40:09.458Z,12.90
2022-11-15T08:41:42.230Z,12.90
2022-11-15T08:43:15.024Z,12.90
2022-11-15T08:44:48.004Z,13.00
2022-11-15T08:46:20.798Z,13.00
2022-11-15T08:47:54.970Z,13.00
2022-11-15T08:49:27.924Z,13.00
2022-11-15T08:51:00.648Z,13.10
2022-11-15T08:52:33.614Z,13.10
2022-11-15T08:54:06.469Z,13.30
2022-11-15T08:55:39.881Z,13.30
2022-11-15T08:57:12.620Z,13.40
2022-11-15T08:58:45.894Z,13.40
2022-11-15T09:00:20.693Z,13.50
2022-11-15T09:01:53.496Z,13.60
2022-11-15T09:03:27.628Z,13.60
2022-11-15T09:05:00.348Z,13.70
2022-11-15T09:06:33.132Z,13.80
2022-11-15T09:08:25.688Z,13.80
2022-11-15T09:10:00.780Z,14.00
2022-11-15T09:11:33.791Z,14.00
2022-11-15T09:13:06.550Z,14.10
2022-11-15T09:14:39.366Z,14.10
2022-11-15T09:16:12.921Z,14.20
2022-11-15T09:17:45.675Z,14.20
2022-11-15T09:19:19.766Z,14.30
2022-11-15T09:20:52.536Z,14.20
2022-11-15T09:22:25.287Z,14.20
2022-11-15T09:23:58.226Z,14.10
2022-11-15T09:25:31.577Z,14.00
2022-11-15T09:27:04.672Z,13.80
2022-11-15T09:28:39.037Z,13.70
2022-11-15T09:30:12.736Z,13.50
2022-11-15T09:31:45.470Z,13.30
2022-11-15T09:33:18.207Z,13.20
2022-11-15T09:34:52.539Z,13.10
2022-11-15T09:36:25.490Z,13.00
2022-11-15T09:37:59.959Z,12.90
2022-11-15T09:39:33.438Z,12.90
2022-11-15T09:41:49.460Z,12.80
2022-11-15T09:43:33.132Z,12.80
2022-11-15T09:45:15.186Z,12.70
2022-11-15T09:46:57.409Z,12.70
2022-11-15T09:48:50.390Z,12.70
2022-11-15T09:50:33.478Z,12.60
2022-11-15T09:52:06.355Z,12.60
2022-11-15T09:55:46.856Z,12.60
2022-11-15T09:57:25.196Z,12.50
2022-11-15T09:59:08.018Z,12.50
2022-11-15T10:00:47.531Z,12.50
2022-11-15T10:02:35.102Z,12.40
2022-11-15T10:04:11.817Z,12.50
2022-11-15T10:05:48.312Z,12.40
2022-11-15T10:07:25.257Z,12.40
2022-11-15T10:09:02.427Z,12.50
2022-11-15T10:10:40.764Z,12.40
2022-11-15T10:12:15.838Z,12.40
2022-11-15T10:13:50.575Z,12.40
2022-11-15T10:15:24.256Z,12.40
2022-11-15T10:17:26.509Z,12.40
2022-11-15T10:19:07.611Z,12.40
2022-11-15T10:20:48.671Z,12.40
2022-11-15T10:22:28.472Z,12.40
2022-11-15T10:24:01.339Z,12.40
2022-11-15T10:25:35.547Z,12.40
2022-11-15T10:27:13.149Z,12.50
2022-11-15T10:28:46.123Z,12.40
2022-11-15T10:30:20.485Z,12.40
2022-11-15T10:31:53.354Z,12.40
2022-11-15T10:33:34.526Z,12.40
2022-11-15T10:35:20.272Z,12.40
2022-11-15T10:36:59.159Z,12.40
2022-11-15T10:38:32.139Z,12.40
2022-11-15T10:40:06.814Z,12.40
2022-11-15T10:41:42.206Z,12.40
2022-11-15T10:43:20.053Z,12.30
2022-11-15T10:44:52.775Z,12.30
2022-11-15T10:46:46.755Z,12.40
2022-11-15T10:48:24.581Z,12.30
2022-11-15T10:50:00.605Z,12.40
2022-11-15T10:51:46.360Z,12.40
2022-11-15T10:53:29.874Z,12.40
2022-11-15T10:55:06.705Z,12.40
2022-11-15T10:56:39.675Z,12.50
2022-11-15T10:58:24.437Z,12.50
2022-11-15T11:00:01.466Z,12.50
2022-11-15T11:01:48.242Z,12.50
2022-11-15T11:03:31.371Z,12.50
2022-11-15T11:05:06.515Z,12.50
2022-11-15T11:06:48.793Z,12.50
2022-11-15T11:08:25.691Z,12.60
2022-11-15T11:10:00.955Z,12.60
2022-11-15T11:11:46.968Z,12.60
2022-11-15T11:13:25.362Z,12.60
2022-11-15T11:14:58.130Z,12.60
2022-11-15T11:16:45.487Z,12.60
2022-11-15T11:18:28.252Z,12.50
2022-11-15T11:20:06.941Z,12.50
2022-11-15T11:21:49.602Z,12.50
2022-11-15T11:23:38.860Z,12.50
2022-11-15T11:25:30.231Z,12.50
2022-11-15T11:27:23.874Z,12.40
2022-11-15T11:29:06.353Z,12.40
2022-11-15T11:30:49.732Z,12.40
2022-11-15T11:32:39.022Z,12.40
2022-11-15T11:34:35.907Z,12.40
2022-11-15T11:36:18.966Z,12.40
2022-11-15T11:37:53.960Z,12.30
2022-11-15T11:39:39.851Z,12.30
2022-11-15T11:41:22.180Z,12.40
2022-11-15T11:43:00.348Z,12.40
2022-11-15T11:44:39.740Z,12.40
2022-11-15T11:46:27.800Z,12.40
2022-11-15T11:48:11.912Z,12.40
2022-11-15T11:49:49.051Z,12.40
2022-11-15T11:51:26.370Z,12.40
2022-11-15T11:53:04.216Z,12.40
2022-11-15T11:54:47.101Z,12.50
2022-11-15T11:56:26.102Z,12.40
2022-11-15T11:58:07.366Z,12.50
2022-11-15T11:59:46.726Z,12.50
2022-11-15T12:01:24.855Z,12.40
2022-11-15T12:03:07.411Z,12.50
2022-11-15T12:04:45.259Z,12.50
2022-11-15T12:06:24.815Z,12.50
2022-11-15T12:08:05.250Z,12.60
2022-11-15T12:09:45.596Z,12.50
2022-11-15T12:11:22.407Z,12.50
2022-11-15T12:13:02.415Z,12.50
2022-11-15T12:14:47.630Z,12.60
2022-11-15T12:16:25.701Z,12.60
2022-11-15T12:17:59.348Z,12.60
2022-11-15T12:19:32.810Z,12.50
2022-11-15T12:21:09.697Z,12.60
2022-11-15T12:22:48.262Z,12.50
2022-11-15T12:24:26.452Z,12.50
2022-11-15T12:26:05.398Z,12.60
2022-11-15T12:27:42.601Z,12.60
2022-11-15T12:29:21.666Z,12.50
2022-11-15T12:30:58.065Z,12.50
2022-11-15T12:32:33.772Z,12.50
2022-11-15T12:34:17.591Z,12.50
2022-11-15T12:36:01.081Z,12.50
2022-11-15T12:37:52.418Z,12.50
2022-11-15T12:40:05.967Z,12.50
2022-11-15T12:41:41.802Z,12.40
2022-11-15T12:43:41.711Z,12.40
2022-11-15T12:45:30.745Z,12.40
2022-11-15T12:47:24.370Z,12.40
2022-11-15T12:48:59.410Z,12.40
2022-11-15T12:50:58.863Z,12.50
2022-11-15T12:52:31.590Z,12.50
2022-11-15T12:54:48.646Z,12.50
2022-11-15T12:56:24.151Z,12.50
2022-11-15T12:58:42.714Z,12.60
2022-11-15T13:00:46.917Z,12.60
2022-11-15T13:02:22.128Z,12.60
2022-11-15T13:04:15.299Z,12.60
2022-11-15T13:06:02.057Z,12.60
2022-11-15T13:07:59.149Z,12.60
2022-11-15T13:09:55.228Z,12.60
2022-11-15T13:11:51.938Z,12.70
2022-11-15T13:13:45.765Z,12.70
2022-11-15T13:15:47.227Z,12.70
2022-11-15T13:17:33.622Z,12.70
2022-11-15T13:19:06.661Z,12.70
2022-11-15T13:20:39.434Z,12.70
2022-11-15T13:22:35.065Z,12.70
2022-11-15T13:24:14.402Z,12.70
2022-11-15T13:26:11.899Z,12.70
2022-11-15T13:27:44.647Z,12.70
2022-11-15T13:29:21.344Z,12.70
2022-11-15T13:30:56.294Z,12.70
2022-11-15T13:32:29.050Z,12.70
2022-11-15T13:34:13.652Z,12.70
2022-11-15T13:36:00.668Z,12.60
2022-11-15T13:37:34.367Z,12.60
2022-11-15T13:39:14.252Z,12.60
2022-11-15T13:40:47.075Z,12.60
2022-11-15T13:42:22.193Z,12.70
2022-11-15T13:43:56.243Z,12.60
2022-11-15T13:45:30.475Z,12.70
2022-11-15T13:47:05.697Z,12.60
2022-11-15T13:48:38.783Z,12.50
2022-11-15T13:50:13.396Z,12.50
2022-11-15T13:51:49.291Z,12.50
2022-11-15T13:53:22.158Z,12.50
2022-11-15T13:55:00.584Z,12.60
2022-11-15T13:56:34.929Z,12.50
2022-11-15T13:58:07.813Z,12.60
2022-11-15T13:59:48.994Z,12.50
2022-11-15T14:01:24.652Z,12.50
2022-11-15T14:02:58.273Z,12.50
2022-11-15T14:04:34.682Z,12.60
2022-11-15T14:06:12.981Z,12.60
2022-11-15T14:07:55.146Z,12.60
2022-11-15T14:09:39.612Z,12.50
2022-11-15T14:11:17.528Z,12.60
2022-11-15T14:12:53.549Z,12.60
2022-11-15T14:14:27.669Z,12.60
2022-11-15T14:16:15.697Z,12.50
2022-11-15T14:17:50.537Z,12.60
2022-11-15T14:19:38.048Z,12.60
2022-11-15T14:21:11.403Z,12.60
2022-11-15T14:22:57.910Z,12.60
2022-11-15T14:24:33.143Z,12.60
2022-11-15T14:26:11.478Z,12.60
2022-11-15T14:27:46.208Z,12.60
2022-11-15T14:29:25.986Z,12.60
2022-11-15T14:31:00.984Z,12.60
2022-11-15T14:32:43.667Z,12.60
2022-11-15T14:34:17.791Z,12.60
2022-11-15T14:35:50.617Z,12.60
2022-11-15T14:37:25.808Z,12.60
2022-11-15T14:38:58.533Z,12.60
2022-11-15T14:40:31.322Z,12.60
2022-11-15T14:42:04.077Z,12.60
2022-11-15T14:43:36.814Z,12.60
2022-11-15T14:45:15.097Z,12.60
2022-11-15T14:46:49.011Z,12.60
2022-11-15T14:48:22.926Z,12.60
2022-11-15T14:49:57.017Z,12.60
2022-11-15T14:51:29.773Z,12.50
2022-11-15T14:53:03.014Z,12.50
2022-11-15T14:54:35.757Z,12.60
2022-11-15T14:56:08.598Z,12.60
2022-11-15T14:57:41.334Z,12.50
2022-11-15T14:59:14.089Z,12.60
2022-11-15T15:00:46.845Z,12.50
2022-11-15T15:02:22.257Z,12.50
2022-11-15T15:03:57.842Z,12.50
2022-11-15T15:05:34.709Z,12.50
2022-11-15T15:07:07.492Z,12.50
2022-11-15T15:08:40.342Z,12.50
2022-11-15T15:12:07.730Z,12.50
2022-11-15T15:13:40.526Z,12.50
2022-11-15T15:15:18.873Z,12.50
2022-11-15T15:16:51.607Z,12.50
2022-11-15T15:18:24.347Z,12.50
2022-11-15T15:19:57.035Z,12.50
2022-11-15T15:21:36.752Z,12.40
2022-11-15T15:23:17.282Z,12.50
2022-11-15T15:24:50.222Z,12.50
2022-11-15T15:26:23.616Z,12.50
2022-11-15T15:27:57.116Z,12.50
2022-11-15T15:29:30.013Z,12.40
2022-11-15T15:31:02.846Z,12.40
2022-11-15T15:32:35.555Z,12.40
2022-11-15T15:34:12.300Z,12.30
2022-11-15T15:35:50.072Z,12.30
2022-11-15T15:38:19.293Z,12.40
2022-11-15T15:39:54.895Z,12.30
2022-11-15T15:41:28.047Z,12.40
2022-11-15T15:43:01.359Z,12.40
2022-11-15T15:46:36.386Z,12.40
2022-11-15T15:48:13.134Z,12.40
2022-11-15T15:54:18.908Z,12.40
2022-11-15T15:55:52.954Z,12.40
2022-11-15T15:57:25.681Z,12.40
2022-11-15T15:58:58.436Z,12.40
2022-11-15T16:00:33.578Z,12.40
2022-11-15T16:02:10.671Z,12.40
2022-11-15T16:03:43.611Z,12.40
2022-11-15T16:05:16.613Z,12.40
2022-11-15T16:06:51.215Z,12.40
2022-11-15T16:08:25.475Z,12.40
2022-11-15T16:10:04.385Z,12.40
2022-11-15T16:11:38.463Z,12.40
2022-11-15T16:13:11.174Z,12.40
2022-11-15T16:14:44.232Z,12.40
2022-11-15T16:16:23.438Z,12.30
2022-11-15T16:17:58.067Z,12.30
2022-11-15T16:19:30.827Z,12.30
2022-11-15T16:21:03.571Z,12.30
2022-11-15T16:22:36.318Z,12.30
2022-11-15T16:24:09.059Z,12.30
2022-11-15T16:25:46.288Z,12.30
2022-11-15T16:27:22.241Z,12.30
2022-11-15T16:28:55.161Z,12.30
2022-11-15T16:30:27.918Z,12.40
2022-11-15T16:32:00.633Z,12.30
2022-11-15T16:33:34.116Z,12.30
2022-11-15T16:35:07.658Z,12.30
2022-11-15T16:36:40.512Z,12.30
2022-11-15T16:38:17.386Z,12.30
2022-11-15T16:39:50.255Z,12.30
2022-11-15T16:41:23.035Z,12.30
2022-11-15T16:42:57.520Z,12.20
2022-11-15T16:44:30.322Z,12.20
2022-11-15T16:46:13.563Z,12.20
2022-11-15T16:47:46.459Z,12.20
2022-11-15T16:49:20.410Z,12.30
2022-11-15T16:50:57.322Z,12.30
2022-11-15T16:52:30.088Z,12.20
2022-11-15T16:54:02.804Z,12.20
2022-11-15T16:55:35.537Z,12.20
2022-11-15T16:57:09.860Z,12.20
2022-11-15T16:58:43.920Z,12.20
2022-11-15T17:00:18.135Z,12.10
2022-11-15T17:01:53.503Z,12.20
2022-11-15T17:03:26.679Z,12.20
2022-11-15T17:04:59.394Z,12.20
2022-11-15T17:06:32.155Z,12.20
2022-11-15T17:08:04.921Z,12.20
2022-11-15T17:09:37.659Z,12.20
2022-11-15T17:11:10.576Z,12.20
2022-11-15T17:12:43.307Z,12.20
2022-11-15T17:14:17.917Z,12.20
2022-11-15T17:15:50.653Z,12.20
2022-11-15T17:17:23.447Z,12.20
2022-11-15T17:18:56.171Z,12.20
2022-11-15T17:20:28.895Z,12.20
2022-11-15T17:22:01.617Z,12.10
2022-11-15T17:23:34.816Z,12.10
2022-11-15T17:25:08.032Z,12.10
2022-11-15T17:26:42.752Z,12.10
2022-11-15T17:28:15.498Z,12.10
2022-11-15T17:29:49.580Z,12.10
2022-11-15T17:31:22.302Z,12.10
2022-11-15T17:32:56.280Z,12.10
2022-11-15T17:34:29.008Z,12.10
2022-11-15T17:36:03.756Z,12.10
2022-11-15T17:37:36.476Z,12.10
2022-11-15T17:39:09.191Z,12.00
2022-11-15T17:40:41.939Z,12.00
2022-11-15T17:42:14.716Z,12.00
2022-11-15T17:43:48.165Z,12.00
2022-11-15T17:45:22.390Z,12.00
2022-11-15T17:46:55.115Z,11.90
2022-11-15T17:48:28.004Z,11.90
2022-11-15T17:50:00.775Z,11.90
2022-11-15T17:51:33.990Z,11.90
2022-11-15T17:53:06.723Z,11.90
2022-11-15T17:54:41.098Z,11.90
2022-11-15T17:56:15.117Z,12.00
2022-11-15T17:57:47.827Z,12.00
2022-11-15T17:59:21.743Z,12.00
2022-11-15T18:00:55.981Z,12.00
2022-11-15T18:02:28.815Z,12.00
2022-11-15T18:04:03.586Z,12.10
2022-11-15T18:05:36.338Z,12.10
2022-11-15T18:07:11.567Z,12.10
2022-11-15T18:08:46.445Z,12.10
2022-11-15T18:10:19.202Z,12.20
2022-11-15T18:11:53.471Z,12.20
2022-11-15T18:13:26.203Z,12.20
2022-11-15T18:15:00.926Z,12.20
2022-11-15T18:16:36.890Z,12.20
2022-11-15T18:18:09.778Z,12.20
2022-11-15T18:19:42.544Z,12.20
2022-11-15T18:21:16.370Z,12.20
2022-11-15T18:22:49.092Z,12.20
2022-11-15T18:24:21.828Z,12.20
2022-11-15T18:25:55.012Z,12.20
2022-11-15T18:27:27.730Z,12.20
2022-11-15T18:29:05.080Z,12.20
2022-11-15T18:30:41.142Z,12.20
2022-11-15T18:32:17.629Z,12.20
2022-11-15T18:33:51.688Z,12.20
2022-11-15T18:35:24.414Z,12.20
2022-11-15T18:36:57.129Z,12.20
2022-11-15T18:38:30.890Z,12.20
2022-11-15T18:40:03.800Z,12.20
2022-11-15T18:41:36.951Z,12.20
2022-11-15T18:43:09.698Z,12.20
2022-11-15T18:44:42.450Z,12.20
2022-11-15T18:46:17.571Z,12.20
2022-11-15T18:47:51.653Z,12.20
2022-11-15T18:49:24.398Z,12.20
2022-11-15T18:51:05.052Z,12.20
2022-11-15T18:52:38.286Z,12.20
2022-11-15T18:54:12.623Z,12.20
2022-11-15T18:55:45.354Z,12.20
2022-11-15T18:57:18.075Z,12.20
2022-11-15T18:58:52.496Z,12.20
2022-11-15T19:00:25.351Z,12.20
2022-11-15T19:01:58.096Z,12.20
2022-11-15T19:03:36.701Z,12.20
2022-11-15T19:05:09.998Z,12.20
2022-11-15T19:06:44.294Z,12.20
2022-11-15T19:08:17.059Z,12.20
2022-11-15T19:09:49.803Z,12.20
2022-11-15T19:11:25.469Z,12.20
2022-11-15T19:12:58.201Z,12.20
2022-11-15T19:14:31.024Z,12.20
2022-11-15T19:16:05.142Z,12.20
2022-11-15T19:17:37.873Z,12.20
2022-11-15T19:19:15.265Z,12.20
2022-11-15T19:20:49.809Z,12.20
2022-11-15T19:22:22.556Z,12.20
2022-11-15T19:23:55.638Z,12.20
2022-11-15T19:25:29.878Z,12.20
2022-11-15T19:27:02.684Z,12.20
2022-11-15T19:28:35.424Z,12.10
2022-11-15T19:30:09.713Z,12.10
2022-11-15T19:31:43.036Z,12.10
2022-11-15T19:33:15.783Z,12.10
2022-11-15T19:34:49.881Z,12.10
2022-11-15T19:36:27.690Z,12.00
2022-11-15T19:38:00.871Z,12.00
2022-11-15T19:39:38.248Z,12.00
2022-11-15T19:41:16.657Z,12.00
2022-11-15T19:42:49.401Z,11.90
2022-11-15T19:44:22.691Z,11.90
2022-11-15T19:45:58.094Z,12.00
2022-11-15T19:47:34.828Z,12.00
2022-11-15T19:49:10.378Z,12.00
2022-11-15T19:50:44.554Z,12.00
2022-11-15T19:52:17.302Z,12.00
2022-11-15T19:53:50.483Z,12.00
2022-11-15T19:55:23.196Z,12.00
2022-11-15T19:56:57.048Z,12.00
2022-11-15T19:58:30.219Z,12.00
2022-11-15T20:00:07.242Z,12.00
2022-11-15T20:01:41.972Z,12.00
2022-11-15T20:03:14.702Z,12.00
2022-11-15T20:04:47.440Z,12.00
2022-11-15T20:06:23.587Z,12.00
2022-11-15T20:07:56.300Z,12.00
2022-11-15T20:09:29.048Z,11.90
2022-11-15T20:11:02.189Z,11.90
2022-11-15T20:12:35.318Z,11.90
2022-11-15T20:14:09.584Z,11.90
2022-11-15T20:15:44.307Z,11.90
2022-11-15T20:17:17.103Z,11.90
2022-11-15T20:18:50.896Z,11.90
2022-11-15T20:20:23.641Z,11.90
2022-11-15T20:21:57.718Z,11.90
2022-11-15T20:23:31.105Z,11.90
2022-11-15T20:25:04.258Z,11.90
2022-11-15T20:26:37.068Z,11.90
2022-11-15T20:28:11.118Z,11.90
2022-11-15T20:29:45.092Z,11.90
2022-11-15T20:31:18.394Z,11.90
2022-11-15T20:32:51.465Z,11.90
2022-11-15T20:34:24.216Z,12.00
2022-11-15T20:35:57.093Z,12.00
2022-11-15T20:37:31.166Z,11.90
2022-11-15T20:39:04.075Z,12.00
2022-11-15T20:40:38.188Z,12.00
2022-11-15T20:42:10.917Z,12.00
2022-11-15T20:43:44.131Z,12.00
2022-11-15T20:45:16.967Z,12.00
2022-11-15T20:46:49.699Z,12.00
2022-11-15T20:48:22.743Z,12.00
2022-11-15T20:49:55.807Z,12.00